EGNM/LBA METAR and TAF weather

Enter ICAO airport designator
Station Type Date Time Source
EGNM METAR 2022/06/29 01:20 UTC NOAA

EGNM 290120Z 17008KT 9999 BKN020 13/11 Q1010


Station Type Date Time Source
EGNM Decoded METAR 2022/06/29 01:20 UTC NOAA

Leeds And Bradford, United Kingdom (EGNM) 53-52N 001-39W
Jun 28, 2022 - 09:20 PM EDT / 2022.06.29 0120 UTC
Wind: from the S (170 degrees) at 9 MPH (8 KT):0
Visibility: greater than 7 mile(s):0
Sky conditions: mostly cloudy
Temperature: 55 F (13 C)
Dew Point: 51 F (11 C)
Relative Humidity: 87%
Pressure (altimeter): 29.83 in. Hg (1010 hPa)
ob: EGNM 290120Z 17008KT 9999 BKN020 13/11 Q1010
cycle: 1

Station Type Date Time Source
EGNM TAF 2022/06/28 18:09 UTC NOAA

TAF TAF EGNM 281657Z 2818/2918 17012KT 9999 SCT030
TEMPO 2818/2909 7000 RA BKN010 PROB40
TEMPO 2818/2823 19015G25KT PROB30
TEMPO 2901/2909 BKN008 PROB40
TEMPO 2909/2918 7000 SHRA BKN010
BECMG 2914/2917 23007KT

Example: see airport list